KNIP

Jacksonville NAS (Towers Field) Airport

Jacksonville, Florida, USA
METAR KNIP 190953Z 23005KT 10SM SCT250 26/24 A2993 RMK AO2 SLP130 T2 SET T02610244 $
Observed Flight Rules
Sep-19 @ 09:53 UTC (an hour ago) Visual Flight Rules
Wind Visibility Clouds
230° at 5 knots 10 miles
  • Scattered at 25,000' AGL
Temperatures Readings
Current 26°C / 79°F
Dewpoint 24°C / 75°F
Humidity 89%
Altimeter 29.93" Hg
Pressure 1013 hPa
Elevation 7
METAR KNIP 190953Z 23005KT 10SM SCT250 26/24 A2993 RMK AO2 SLP130 T2 SET T02610244 $
Observed Flight Rules
Sep-19 @ 09:53 UTC
(an hour ago)
VFR
Wind Visibility
230° at 5 knots 10 miles
Clouds
  • Scattered at 25,000' AGL
Temperature Dewpoint
26°C / 79°F 24°C / 75°F
Humidity Altimeter Pressure
89% 29.93" Hg 1013 hPa